CYFR

Details ICAO CYFR (YFR)
Name FORT RESOLUTION
Region Canada
Timezone America/Yellowknife (UTC-6.0)
Plans Departing 1
Arriving 0
Stats Elevation 526 ft / 160 m (AMSL)
Location 61.180833° -113.689723°
Runways 1
Magnetic Variation 15.832° E
Sunrise 2018-05-23 10:29:58 UTC / 2018-05-23 04:29:58 Local
Sunset 2018-05-24 04:35:58 UTC / 2018-05-23 22:35:58 Local
Advertisement - Login to hide

Runways

ID Width Length Bearing (true) Bearing (mag) Surface Threshold Offset Overrun Length
12 100 ft / 30 m 3,988 ft / 1,216 m 139.14° 123.31° Gravel 0 ft / 0 m 0 ft / 0 m
30 100 ft / 30 m 3,988 ft / 1,216 m 319.15° 303.32° Gravel 655 ft / 200 m 0 ft / 0 m

Map

Weather


0- 5 10 15 20 25 30 35+ Temperature / ° C

Clouds and Precipitation
Forecast for 2018-05-23 18:00 UTC. Updated 4 hours ago

Ground ~20,000 ft ~40,000 ft Winds

METAR

CYFR 232100Z 23004KT 180V340 15SM FEW110 18/04 A2973 RMK AC1 AC TR SLP074 DENSITY ALT 1300FT

TAF

Not found

Frequencies

Unicom 122.10 MHz MANDATORY FREQ
Warning: Do not use this data for real-world aviation or navigation. No guarantee of current accuracy is given.